createdAt,value
2022-10-18T00:04:36.690Z,20.66
2022-10-18T00:09:39.579Z,20.76
2022-10-18T00:14:42.243Z,18.96
2022-10-18T00:19:46.607Z,19.41
2022-10-18T00:24:49.341Z,20.55
2022-10-18T00:29:55.081Z,20.88
2022-10-18T00:34:57.714Z,19.22
2022-10-18T00:40:00.776Z,18.72
2022-10-18T00:45:16.675Z,20.16
2022-10-18T00:50:21.524Z,20.84
2022-10-18T00:55:31.317Z,20.09
2022-10-18T01:00:38.770Z,19.01
2022-10-18T01:05:45.719Z,19.95
2022-10-18T01:11:06.673Z,20.60
2022-10-18T01:16:17.942Z,20.34
2022-10-18T01:21:45.974Z,18.38
2022-10-18T01:27:11.690Z,18.94
2022-10-18T01:32:19.928Z,20.16
2022-10-18T01:37:23.056Z,20.64
2022-10-18T01:42:26.589Z,20.35
2022-10-18T01:47:29.763Z,18.62
2022-10-18T01:52:33.456Z,19.45
2022-10-18T01:57:41.897Z,20.31
2022-10-18T02:02:55.270Z,20.66
2022-10-18T02:08:23.297Z,20.11
2022-10-18T02:13:32.670Z,18.25
2022-10-18T02:18:42.674Z,19.30
2022-10-18T02:23:46.906Z,20.21
2022-10-18T02:28:49.626Z,20.55
2022-10-18T02:34:04.604Z,20.63
2022-10-18T02:39:14.649Z,18.83
2022-10-18T02:44:17.461Z,18.60
2022-10-18T02:49:20.142Z,19.82
2022-10-18T02:54:24.047Z,20.27
2022-10-18T02:59:26.726Z,20.52
2022-10-18T03:04:29.671Z,20.43
2022-10-18T03:09:32.596Z,18.65
2022-10-18T03:14:35.285Z,18.54
2022-10-18T03:19:38.889Z,19.69
2022-10-18T03:24:41.553Z,20.15
2022-10-18T03:29:44.227Z,20.43
2022-10-18T03:34:46.913Z,20.23
2022-10-18T03:39:49.582Z,18.23
2022-10-18T03:44:52.220Z,18.44
2022-10-18T03:49:57.136Z,19.62
2022-10-18T03:55:00.488Z,20.18
2022-10-18T04:00:04.560Z,20.68
2022-10-18T04:05:08.603Z,20.22
2022-10-18T04:10:11.282Z,18.88
2022-10-18T04:15:14.011Z,20.03
2022-10-18T04:20:16.946Z,20.67
2022-10-18T04:25:19.620Z,21.02
2022-10-18T04:30:22.347Z,20.01
2022-10-18T04:35:26.179Z,19.04
2022-10-18T04:40:28.879Z,20.25
2022-10-18T04:45:31.627Z,20.91
2022-10-18T04:50:34.300Z,20.87
2022-10-18T04:55:37.048Z,19.08
2022-10-18T05:00:40.248Z,18.99
2022-10-18T05:06:00.757Z,20.37
2022-10-18T05:11:05.016Z,21.04
2022-10-18T05:16:07.765Z,20.64
2022-10-18T05:21:10.959Z,18.87
2022-10-18T05:26:13.699Z,19.52
2022-10-18T05:31:16.728Z,20.76
2022-10-18T05:36:19.442Z,21.19
2022-10-18T05:41:22.387Z,19.75
2022-10-18T05:46:25.735Z,19.07
2022-10-18T05:51:28.495Z,20.46
2022-10-18T05:56:31.339Z,21.10
2022-10-18T06:01:34.154Z,20.97
2022-10-18T06:06:40.514Z,19.17
2022-10-18T06:11:44.342Z,19.60
2022-10-18T06:16:47.642Z,20.79
2022-10-18T06:21:58.046Z,21.36
2022-10-18T06:27:22.834Z,20.41
2022-10-18T06:32:46.247Z,19.82
2022-10-18T06:37:58.574Z,21.19
2022-10-18T06:43:19.558Z,21.01
2022-10-18T06:48:25.162Z,19.36
2022-10-18T06:53:30.780Z,20.45
2022-10-18T06:58:34.159Z,21.44
2022-10-18T07:03:37.549Z,21.12
2022-10-18T07:08:40.849Z,19.54
2022-10-18T07:13:43.718Z,20.44
2022-10-18T07:18:51.416Z,21.63
2022-10-18T07:23:54.808Z,21.44
2022-10-18T07:29:15.397Z,19.82
2022-10-18T07:34:18.258Z,20.82
2022-10-18T07:39:21.032Z,21.73
2022-10-18T07:44:26.150Z,21.70
2022-10-18T07:49:28.923Z,19.93
2022-10-18T07:54:32.029Z,20.21
2022-10-18T07:59:34.948Z,21.42
2022-10-18T08:04:37.654Z,22.03
2022-10-18T08:09:40.381Z,21.59
2022-10-18T08:14:43.051Z,19.99
2022-10-18T08:19:53.013Z,20.90
2022-10-18T08:25:09.139Z,21.83
2022-10-18T08:30:12.113Z,21.95
2022-10-18T08:35:15.343Z,20.27
2022-10-18T08:40:18.566Z,20.86
2022-10-18T08:45:37.450Z,22.07
2022-10-18T08:50:45.998Z,22.55
2022-10-18T08:56:16.156Z,21.19
2022-10-18T09:01:52.269Z,20.79
2022-10-18T09:07:24.137Z,22.17
2022-10-18T09:12:52.160Z,22.18
2022-10-18T09:18:13.162Z,20.30
2022-10-18T09:23:21.827Z,21.03
2022-10-18T09:28:43.003Z,22.21
2022-10-18T09:33:58.511Z,22.82
2022-10-18T09:39:28.622Z,21.54
2022-10-18T09:44:31.437Z,21.16
2022-10-18T09:49:44.406Z,22.30
2022-10-18T09:55:03.341Z,22.68
2022-10-18T10:00:16.857Z,21.56
2022-10-18T10:05:20.167Z,21.20
2022-10-18T10:10:28.989Z,22.27
2022-10-18T10:15:37.185Z,22.51
2022-10-18T10:20:51.112Z,22.47
2022-10-18T10:25:57.036Z,20.78
2022-10-18T10:31:33.754Z,21.53
2022-10-18T10:36:55.725Z,22.34
2022-10-18T10:42:01.244Z,22.71
2022-10-18T10:47:06.162Z,22.30
2022-10-18T10:52:28.596Z,20.60
2022-10-18T10:57:32.969Z,21.62
2022-10-18T11:02:36.819Z,22.38
2022-10-18T11:07:46.985Z,22.60
2022-10-18T11:13:30.128Z,22.66
2022-10-18T11:18:38.464Z,20.82
2022-10-18T11:23:43.821Z,21.38
2022-10-18T11:29:10.768Z,22.06
2022-10-18T11:34:16.610Z,22.44
2022-10-18T11:39:41.019Z,22.70
2022-10-18T11:44:59.202Z,22.09
2022-10-18T11:50:31.055Z,20.92
2022-10-18T11:55:49.254Z,22.03
2022-10-18T12:01:29.936Z,22.48
2022-10-18T12:06:39.073Z,22.72
2022-10-18T12:12:06.391Z,22.20
2022-10-18T12:17:49.903Z,20.29
2022-10-18T12:23:04.131Z,21.22
2022-10-18T12:28:26.055Z,22.20
2022-10-18T12:33:35.929Z,22.59
2022-10-18T12:38:43.801Z,22.04
2022-10-18T12:43:53.405Z,20.85
2022-10-18T12:49:04.873Z,21.82
2022-10-18T12:54:12.560Z,22.21
2022-10-18T12:59:15.448Z,22.39
2022-10-18T13:04:33.776Z,21.79
2022-10-18T13:09:41.611Z,20.76
2022-10-18T13:15:24.318Z,21.80
2022-10-18T13:20:44.287Z,22.23
2022-10-18T13:26:05.471Z,22.47
2022-10-18T13:31:38.209Z,21.91
2022-10-18T13:36:42.376Z,20.30
2022-10-18T13:41:47.957Z,21.32
2022-10-18T13:46:51.559Z,21.89
2022-10-18T13:52:06.574Z,22.06
2022-10-18T13:57:27.506Z,22.09
2022-10-18T14:02:51.706Z,22.07
2022-10-18T14:08:10.224Z,20.41
2022-10-18T14:13:23.340Z,20.55
2022-10-18T14:18:33.533Z,21.56
2022-10-18T14:23:44.822Z,21.98
2022-10-18T14:29:06.392Z,22.23
2022-10-18T14:34:15.393Z,21.45
2022-10-18T14:39:26.818Z,20.17
2022-10-18T14:44:34.790Z,21.28
2022-10-18T14:49:44.690Z,21.78
2022-10-18T14:54:47.541Z,21.15
2022-10-18T14:59:58.289Z,20.07
2022-10-18T15:05:16.340Z,21.14
2022-10-18T15:10:27.240Z,21.54
2022-10-18T15:15:32.221Z,21.67
2022-10-18T15:20:39.607Z,20.89
2022-10-18T15:25:42.983Z,19.79
2022-10-18T15:30:46.041Z,20.81
2022-10-18T15:35:49.545Z,21.19
2022-10-18T15:40:52.714Z,21.35
2022-10-18T15:46:05.104Z,21.62
2022-10-18T15:51:26.593Z,21.14
2022-10-18T15:56:37.409Z,19.72
2022-10-18T16:01:44.507Z,20.62
2022-10-18T16:06:47.308Z,21.19
2022-10-18T16:11:56.373Z,21.41
2022-10-18T16:17:02.462Z,21.56
2022-10-18T16:22:07.132Z,21.67
2022-10-18T16:27:10.222Z,20.88
2022-10-18T16:32:12.946Z,19.67
2022-10-18T16:37:15.662Z,20.64
2022-10-18T16:42:18.787Z,21.09
2022-10-18T16:47:21.672Z,21.23
2022-10-18T16:52:24.670Z,21.25
2022-10-18T16:57:27.362Z,21.30
2022-10-18T17:02:30.338Z,21.34
2022-10-18T17:07:33.666Z,21.34
2022-10-18T17:12:36.376Z,21.28
2022-10-18T17:17:39.634Z,19.64
2022-10-18T17:22:42.491Z,19.49
2022-10-18T17:27:46.407Z,20.50
2022-10-18T17:32:49.150Z,20.82
2022-10-18T17:37:53.543Z,20.82
2022-10-18T17:42:56.470Z,20.95
2022-10-18T17:47:59.156Z,20.33
2022-10-18T17:53:03.069Z,19.10
2022-10-18T17:58:06.147Z,19.95
2022-10-18T18:03:09.349Z,20.36
2022-10-18T18:08:12.096Z,20.56
2022-10-18T18:13:17.641Z,20.76
2022-10-18T18:18:22.585Z,20.82
2022-10-18T18:23:25.875Z,20.10
2022-10-18T18:28:29.102Z,18.15
2022-10-18T18:33:33.389Z,19.21
2022-10-18T18:38:38.882Z,19.84
2022-10-18T18:43:49.631Z,20.05
2022-10-18T18:48:52.960Z,20.16
2022-10-18T18:53:55.687Z,19.71
2022-10-18T18:59:01.563Z,17.82
2022-10-18T19:04:06.428Z,18.61
2022-10-18T19:09:26.446Z,19.18
2022-10-18T19:14:30.766Z,19.33
2022-10-18T19:19:34.291Z,19.52
2022-10-18T19:24:37.351Z,18.96
2022-10-18T19:29:41.056Z,16.82
2022-10-18T19:34:44.205Z,16.94
2022-10-18T19:39:47.008Z,18.24
2022-10-18T19:44:49.888Z,18.75
2022-10-18T19:49:53.898Z,18.16
2022-10-18T19:54:56.643Z,16.19
2022-10-18T20:00:00.778Z,17.02
2022-10-18T20:05:04.167Z,17.83
2022-10-18T20:10:07.052Z,18.12
2022-10-18T20:15:10.764Z,17.42
2022-10-18T20:20:13.490Z,16.06
2022-10-18T20:25:16.255Z,17.14
2022-10-18T20:30:18.929Z,17.65
2022-10-18T20:35:26.091Z,17.07
2022-10-18T20:40:28.942Z,15.79
2022-10-18T20:45:31.683Z,16.88
2022-10-18T20:50:34.371Z,17.31
2022-10-18T20:55:38.850Z,17.65
2022-10-18T21:00:41.578Z,17.09
2022-10-18T21:05:44.256Z,15.07
2022-10-18T21:10:46.993Z,16.00
2022-10-18T21:15:57.489Z,16.95
2022-10-18T21:21:14.883Z,17.31
2022-10-18T21:26:27.790Z,17.55
2022-10-18T21:31:35.962Z,17.52
2022-10-18T21:36:39.744Z,15.73
2022-10-18T21:41:43.181Z,16.34
2022-10-18T21:46:46.900Z,17.20
2022-10-18T21:51:49.674Z,17.31
2022-10-18T21:56:52.371Z,17.60
2022-10-18T22:01:55.287Z,16.81
2022-10-18T22:06:58.235Z,15.72
2022-10-18T22:12:00.991Z,16.83
2022-10-18T22:17:04.057Z,17.45
2022-10-18T22:22:06.766Z,17.75
2022-10-18T22:27:09.492Z,16.54
2022-10-18T22:32:12.187Z,16.44
2022-10-18T22:37:14.838Z,17.39
2022-10-18T22:42:17.503Z,17.60
2022-10-18T22:47:20.134Z,15.77
2022-10-18T22:52:22.838Z,16.17
2022-10-18T22:57:25.471Z,16.96
2022-10-18T23:02:28.179Z,17.26
2022-10-18T23:07:30.809Z,17.52
2022-10-18T23:12:33.667Z,17.53
2022-10-18T23:17:37.128Z,15.90
2022-10-18T23:22:40.126Z,16.29
2022-10-18T23:32:50.552Z,17.18
2022-10-18T23:37:53.185Z,17.35
2022-10-18T23:42:55.966Z,16.50
2022-10-18T23:47:58.622Z,15.67
2022-10-18T23:53:01.335Z,16.61
2022-10-18T23:58:04.050Z,16.92
